createdAt,value
2019-03-25T00:02:23.321Z,41.25
2019-03-25T00:04:53.483Z,40.80
2019-03-25T00:07:22.126Z,41.29
2019-03-25T00:09:50.810Z,40.60
2019-03-25T00:12:19.474Z,40.78
2019-03-25T00:14:48.843Z,40.79
2019-03-25T00:17:19.031Z,40.62
2019-03-25T00:19:47.678Z,41.16
2019-03-25T00:22:16.327Z,41.08
2019-03-25T00:24:46.388Z,40.15
2019-03-25T00:27:15.025Z,40.17
2019-03-25T00:29:43.669Z,40.42
2019-03-25T00:32:12.359Z,40.57
2019-03-25T00:34:40.865Z,40.50
2019-03-25T00:37:10.765Z,41.04
2019-03-25T00:39:39.278Z,41.27
2019-03-25T00:42:10.108Z,41.49
2019-03-25T00:44:38.753Z,41.66
2019-03-25T00:47:07.556Z,42.42
2019-03-25T00:49:36.276Z,42.82
2019-03-25T00:52:07.408Z,42.49
2019-03-25T00:54:36.163Z,42.39
2019-03-25T00:57:04.806Z,42.64
2019-03-25T00:59:33.444Z,42.57
2019-03-25T01:02:02.134Z,43.46
2019-03-25T01:04:30.775Z,43.14
2019-03-25T01:06:59.420Z,42.55
2019-03-25T01:09:28.111Z,42.98
2019-03-25T01:11:56.764Z,43.69
2019-03-25T01:14:25.418Z,43.77
2019-03-25T01:16:54.146Z,44.18
2019-03-25T01:19:22.813Z,43.53
2019-03-25T01:21:51.481Z,43.59
2019-03-25T01:24:21.766Z,43.74
2019-03-25T01:26:50.425Z,43.83
2019-03-25T01:29:19.072Z,43.73
2019-03-25T01:31:47.768Z,43.85
2019-03-25T01:34:16.477Z,43.90
2019-03-25T01:36:45.118Z,43.69
2019-03-25T01:39:13.672Z,43.50
2019-03-25T01:41:43.588Z,43.64
2019-03-25T01:44:12.228Z,43.95
2019-03-25T01:46:42.175Z,44.34
2019-03-25T01:49:10.741Z,44.72
2019-03-25T01:51:39.395Z,44.73
2019-03-25T01:54:08.161Z,44.95
2019-03-25T01:56:36.745Z,45.14
2019-03-25T01:59:05.465Z,45.29
2019-03-25T02:01:34.488Z,45.50
2019-03-25T02:04:03.136Z,45.08
2019-03-25T02:06:31.658Z,45.45
2019-03-25T02:09:00.416Z,45.08
2019-03-25T02:11:29.064Z,45.37
2019-03-25T02:13:57.965Z,44.81
2019-03-25T02:16:26.650Z,44.71
2019-03-25T02:18:55.374Z,44.97
2019-03-25T02:21:24.016Z,44.67
2019-03-25T02:23:52.538Z,43.89
2019-03-25T02:26:21.193Z,43.67
2019-03-25T02:28:49.911Z,44.23
2019-03-25T02:31:18.599Z,43.49
2019-03-25T02:33:47.234Z,42.88
2019-03-25T02:36:15.875Z,43.75
2019-03-25T02:38:44.679Z,44.40
2019-03-25T02:41:13.249Z,44.07
2019-03-25T02:43:52.053Z,44.71
2019-03-25T02:46:20.694Z,44.17
2019-03-25T02:48:49.330Z,43.96
2019-03-25T02:51:17.890Z,43.06
2019-03-25T02:53:46.821Z,44.20
2019-03-25T02:56:15.539Z,43.58
2019-03-25T02:58:44.218Z,44.20
2019-03-25T03:01:12.804Z,43.92
2019-03-25T03:03:41.440Z,45.65
2019-03-25T03:06:10.133Z,45.55
2019-03-25T03:08:40.247Z,46.09
2019-03-25T03:11:11.198Z,46.13
2019-03-25T03:13:39.890Z,46.19
2019-03-25T03:16:08.605Z,45.65
2019-03-25T03:18:37.255Z,46.46
2019-03-25T03:21:06.003Z,46.13
2019-03-25T03:23:35.034Z,46.90
2019-03-25T03:26:03.740Z,46.56
2019-03-25T03:28:34.476Z,47.51
2019-03-25T03:31:03.123Z,46.51
2019-03-25T03:33:31.706Z,47.10
2019-03-25T03:36:00.379Z,46.70
2019-03-25T03:38:29.026Z,47.02
2019-03-25T03:40:58.174Z,46.37
2019-03-25T03:43:26.983Z,47.00
2019-03-25T03:45:55.639Z,47.19
2019-03-25T03:48:24.275Z,46.56
2019-03-25T03:50:52.975Z,46.66
2019-03-25T03:53:21.893Z,47.56
2019-03-25T03:55:51.235Z,46.90
2019-03-25T03:58:20.418Z,47.62
2019-03-25T04:00:49.069Z,47.73
2019-03-25T04:03:17.774Z,47.07
2019-03-25T04:05:46.472Z,47.55
2019-03-25T04:08:15.044Z,47.85
2019-03-25T04:10:43.636Z,47.96
2019-03-25T04:13:12.393Z,48.11
2019-03-25T04:15:41.203Z,48.43
2019-03-25T04:18:09.787Z,48.78
2019-03-25T04:20:38.699Z,49.15
2019-03-25T04:23:07.393Z,49.35
2019-03-25T04:25:36.278Z,48.78
2019-03-25T04:28:05.012Z,49.14
2019-03-25T04:30:33.640Z,49.15
2019-03-25T04:33:02.340Z,49.02
2019-03-25T04:35:33.632Z,49.08
2019-03-25T04:38:02.362Z,48.53
2019-03-25T04:40:31.066Z,47.94
2019-03-25T04:42:59.630Z,48.61
2019-03-25T04:45:28.338Z,48.07
2019-03-25T04:47:56.848Z,47.96
2019-03-25T04:50:25.490Z,47.90
2019-03-25T04:52:54.065Z,47.68
2019-03-25T04:55:22.976Z,47.12
2019-03-25T04:57:51.696Z,47.96
2019-03-25T05:00:32.308Z,48.09
2019-03-25T05:03:00.914Z,47.46
2019-03-25T05:05:29.505Z,47.18
2019-03-25T05:07:58.191Z,47.42
2019-03-25T05:10:28.259Z,48.23
2019-03-25T05:12:57.144Z,47.10
2019-03-25T05:15:25.834Z,47.06
2019-03-25T05:17:54.426Z,47.15
2019-03-25T05:20:23.156Z,47.30
2019-03-25T05:22:51.820Z,46.82
2019-03-25T05:25:20.605Z,46.95
2019-03-25T05:27:49.326Z,46.80
2019-03-25T05:30:18.021Z,48.64
2019-03-25T05:32:46.733Z,45.34
2019-03-25T05:35:15.389Z,44.12
2019-03-25T05:37:44.114Z,43.85
2019-03-25T05:40:14.340Z,42.95
2019-03-25T05:42:42.986Z,42.93
2019-03-25T05:45:13.467Z,42.75
2019-03-25T05:47:42.053Z,41.77
2019-03-25T05:50:10.696Z,41.71
2019-03-25T05:52:39.401Z,42.42
2019-03-25T05:55:08.322Z,40.68
2019-03-25T05:57:36.901Z,39.76
2019-03-25T06:00:06.834Z,39.73
2019-03-25T06:02:35.533Z,40.18
2019-03-25T06:05:05.007Z,41.16
2019-03-25T06:07:35.091Z,41.31
2019-03-25T06:10:06.061Z,41.44
2019-03-25T06:12:34.785Z,41.79
2019-03-25T06:15:04.651Z,40.89
2019-03-25T06:17:34.147Z,40.71
2019-03-25T06:20:02.723Z,40.54
2019-03-25T06:22:31.561Z,40.51
2019-03-25T06:25:01.199Z,38.62
2019-03-25T06:27:29.792Z,39.11
2019-03-25T06:29:58.477Z,39.09
2019-03-25T06:32:27.114Z,39.39
2019-03-25T06:34:55.682Z,40.00
2019-03-25T06:37:24.343Z,38.91
2019-03-25T06:39:53.060Z,37.68
2019-03-25T06:42:21.700Z,37.30
2019-03-25T06:44:50.372Z,38.64
2019-03-25T06:47:19.057Z,38.05
2019-03-25T06:49:47.734Z,38.11
2019-03-25T06:52:16.397Z,37.69
2019-03-25T06:54:45.045Z,37.04
2019-03-25T06:57:24.935Z,37.05
2019-03-25T06:59:44.755Z,36.81
2019-03-25T07:02:13.473Z,36.90
2019-03-25T07:04:42.150Z,36.83
2019-03-25T07:07:10.866Z,37.34
2019-03-25T07:09:39.636Z,37.67
2019-03-25T07:12:08.385Z,36.71
2019-03-25T07:14:37.060Z,36.70
2019-03-25T07:17:05.699Z,37.35
2019-03-25T07:19:34.379Z,36.45
2019-03-25T07:22:05.091Z,35.94
2019-03-25T07:24:33.815Z,36.57
2019-03-25T07:27:02.408Z,37.20
2019-03-25T07:29:31.048Z,36.16
2019-03-25T07:31:59.838Z,36.17
2019-03-25T07:34:28.519Z,35.67
2019-03-25T07:36:57.158Z,35.63
2019-03-25T07:39:26.254Z,36.19
2019-03-25T07:41:54.979Z,35.34
2019-03-25T07:44:23.754Z,35.98
2019-03-25T07:46:52.934Z,35.98
2019-03-25T07:49:21.581Z,35.95
2019-03-25T07:51:50.210Z,35.41
2019-03-25T07:54:24.175Z,35.79
2019-03-25T07:56:52.940Z,36.71
2019-03-25T07:59:21.583Z,36.19
2019-03-25T08:01:50.582Z,35.06
2019-03-25T08:04:22.605Z,35.32
2019-03-25T08:06:53.123Z,35.34
2019-03-25T08:09:21.902Z,35.24
2019-03-25T08:11:50.560Z,34.79
2019-03-25T08:14:20.709Z,34.75
2019-03-25T08:16:49.753Z,34.79
2019-03-25T08:19:18.422Z,34.18
2019-03-25T08:21:47.220Z,34.19
2019-03-25T08:24:16.034Z,33.48
2019-03-25T08:26:44.693Z,33.58
2019-03-25T08:29:13.356Z,33.85
2019-03-25T08:31:42.064Z,33.91
2019-03-25T08:34:10.717Z,33.51
2019-03-25T08:36:39.452Z,33.57
2019-03-25T08:39:08.261Z,33.65
2019-03-25T08:41:37.017Z,33.73
2019-03-25T08:44:05.757Z,34.44
2019-03-25T08:46:35.153Z,34.07
2019-03-25T08:49:03.834Z,33.83
2019-03-25T08:51:32.509Z,34.30
2019-03-25T08:54:01.312Z,33.44
2019-03-25T08:56:29.979Z,32.86
2019-03-25T08:58:58.623Z,33.07
2019-03-25T09:01:27.331Z,33.30
2019-03-25T09:03:56.055Z,32.97
2019-03-25T09:06:24.771Z,32.65
2019-03-25T09:08:53.477Z,32.67
2019-03-25T09:11:22.137Z,32.67
2019-03-25T09:13:55.802Z,32.13
2019-03-25T09:16:24.487Z,31.89
2019-03-25T09:18:53.216Z,32.43
2019-03-25T09:21:23.398Z,32.07
2019-03-25T09:23:52.449Z,32.29
2019-03-25T09:26:21.027Z,31.88
2019-03-25T09:28:49.855Z,32.11
2019-03-25T09:31:18.671Z,31.99
2019-03-25T09:33:48.266Z,31.97
2019-03-25T09:36:18.775Z,31.96
2019-03-25T09:38:47.506Z,30.51
2019-03-25T09:41:16.347Z,31.25
2019-03-25T09:43:45.214Z,31.64
2019-03-25T09:46:14.011Z,31.21
2019-03-25T09:48:42.647Z,30.92
2019-03-25T09:51:11.609Z,30.20
2019-03-25T09:53:40.321Z,29.65
2019-03-25T09:56:09.240Z,28.62
2019-03-25T09:58:37.927Z,29.34
2019-03-25T10:01:06.713Z,29.33
2019-03-25T10:03:35.354Z,29.73
2019-03-25T10:06:04.572Z,29.78
2019-03-25T10:08:34.901Z,29.13
2019-03-25T10:11:03.628Z,28.20
2019-03-25T10:13:32.304Z,28.42
2019-03-25T10:16:01.169Z,28.45
2019-03-25T10:18:29.837Z,28.03
2019-03-25T10:20:58.486Z,28.52
2019-03-25T10:23:28.769Z,27.65
2019-03-25T10:26:00.292Z,27.79
2019-03-25T10:28:28.872Z,27.65
2019-03-25T10:30:58.921Z,27.00
2019-03-25T10:33:27.576Z,25.80
2019-03-25T10:35:56.329Z,27.27
2019-03-25T10:38:25.036Z,27.13
2019-03-25T10:40:55.164Z,26.93
2019-03-25T10:43:23.804Z,27.40
2019-03-25T10:45:52.477Z,26.93
2019-03-25T10:48:21.217Z,26.54
2019-03-25T10:50:51.419Z,25.98
2019-03-25T10:53:21.064Z,26.25
2019-03-25T10:55:51.335Z,25.81
2019-03-25T10:58:19.983Z,24.82
2019-03-25T11:00:50.131Z,24.44
2019-03-25T11:03:18.777Z,24.22
2019-03-25T11:05:48.148Z,24.62
2019-03-25T11:08:22.239Z,24.85
2019-03-25T11:10:50.877Z,24.34
2019-03-25T11:13:19.551Z,22.45
2019-03-25T11:15:48.309Z,24.27
2019-03-25T11:18:17.665Z,24.05
2019-03-25T11:20:46.426Z,23.48
2019-03-25T11:23:15.122Z,23.24
2019-03-25T11:25:43.871Z,23.00
2019-03-25T11:28:12.537Z,23.67
2019-03-25T11:30:52.358Z,23.26
2019-03-25T11:33:21.823Z,22.15
2019-03-25T11:35:50.584Z,22.58
2019-03-25T11:38:20.585Z,21.88
2019-03-25T11:40:49.471Z,21.63
2019-03-25T11:43:18.220Z,21.46
2019-03-25T11:45:47.043Z,21.59
2019-03-25T11:48:17.236Z,22.44
2019-03-25T11:50:51.775Z,22.43
2019-03-25T11:53:22.034Z,22.51
2019-03-25T11:55:52.433Z,22.87
2019-03-25T11:58:21.308Z,23.03
2019-03-25T12:00:52.779Z,22.70
2019-03-25T12:03:26.862Z,22.57
2019-03-25T12:05:55.593Z,22.82
2019-03-25T12:08:24.259Z,22.66
2019-03-25T12:10:52.929Z,23.37
2019-03-25T12:13:21.612Z,22.76
2019-03-25T12:15:50.388Z,23.00
2019-03-25T12:18:19.063Z,23.41
2019-03-25T12:20:47.909Z,23.07
2019-03-25T12:23:25.748Z,23.47
2019-03-25T12:25:48.730Z,24.25
2019-03-25T12:28:22.004Z,23.57
2019-03-25T12:30:52.278Z,23.64
2019-03-25T12:33:22.692Z,22.67
2019-03-25T12:35:51.474Z,23.71
2019-03-25T12:38:21.573Z,23.55
2019-03-25T12:40:50.291Z,24.16
2019-03-25T12:43:24.965Z,24.46
2019-03-25T12:45:55.023Z,24.38
2019-03-25T12:48:28.318Z,23.93
2019-03-25T12:50:56.995Z,23.35
2019-03-25T12:53:25.656Z,23.67
2019-03-25T12:55:54.548Z,23.61
2019-03-25T12:58:23.518Z,23.64
2019-03-25T13:00:52.261Z,24.04
2019-03-25T13:03:20.891Z,24.06
2019-03-25T13:05:50.839Z,24.08
2019-03-25T13:08:19.485Z,23.66
2019-03-25T13:10:48.592Z,24.15
2019-03-25T13:13:17.401Z,23.79
2019-03-25T13:15:46.139Z,24.39
2019-03-25T13:18:14.868Z,24.95
2019-03-25T13:20:43.513Z,24.46
2019-03-25T13:23:12.177Z,24.32
2019-03-25T13:25:40.861Z,24.60
2019-03-25T13:28:09.895Z,24.35
2019-03-25T13:30:39.782Z,24.31
2019-03-25T13:33:08.508Z,24.54
2019-03-25T13:35:39.425Z,25.06
2019-03-25T13:38:08.150Z,24.98
2019-03-25T13:40:36.910Z,24.66
2019-03-25T13:43:05.771Z,24.75
2019-03-25T13:45:34.529Z,24.17
2019-03-25T13:48:03.331Z,24.64
2019-03-25T13:50:32.347Z,24.70
2019-03-25T13:53:01.033Z,24.53
2019-03-25T13:55:29.750Z,24.61
2019-03-25T13:57:58.566Z,24.71
2019-03-25T14:00:38.105Z,24.81
2019-03-25T14:03:08.179Z,24.54
2019-03-25T14:05:37.582Z,24.33
2019-03-25T14:08:06.256Z,24.53
2019-03-25T14:10:39.546Z,24.58
2019-03-25T14:13:12.338Z,24.56
2019-03-25T14:15:44.354Z,24.47
2019-03-25T14:18:11.410Z,24.41
2019-03-25T14:20:40.144Z,24.18
2019-03-25T14:23:08.798Z,24.47
2019-03-25T14:25:38.565Z,24.32
2019-03-25T14:28:08.753Z,24.17
2019-03-25T14:30:37.418Z,24.49
2019-03-25T14:33:06.116Z,24.35
2019-03-25T14:35:34.806Z,24.38
2019-03-25T14:38:05.098Z,24.46
2019-03-25T14:40:33.838Z,24.26
2019-03-25T14:43:02.574Z,24.08
2019-03-25T14:45:32.856Z,24.23
2019-03-25T14:48:01.602Z,24.15
2019-03-25T14:50:30.289Z,24.19
2019-03-25T14:52:59.011Z,24.31
2019-03-25T14:55:27.605Z,24.34
2019-03-25T14:57:56.286Z,24.50
2019-03-25T15:00:25.789Z,24.38
2019-03-25T15:02:54.782Z,24.13
2019-03-25T15:05:23.503Z,24.29
2019-03-25T15:07:52.442Z,24.25
2019-03-25T15:10:21.200Z,24.56
2019-03-25T15:12:49.880Z,24.67
2019-03-25T15:15:18.955Z,24.52
2019-03-25T15:17:48.922Z,24.71
2019-03-25T15:20:17.653Z,24.44
2019-03-25T15:22:46.254Z,24.23
2019-03-25T15:25:15.410Z,24.33
2019-03-25T15:27:44.124Z,24.25
2019-03-25T15:30:13.101Z,24.43
2019-03-25T15:32:43.932Z,24.81
2019-03-25T15:35:13.280Z,24.94
2019-03-25T15:37:41.953Z,25.22
2019-03-25T15:40:12.943Z,25.49
2019-03-25T15:42:42.991Z,25.63
2019-03-25T15:45:11.925Z,25.88
2019-03-25T15:47:44.077Z,26.44
2019-03-25T15:50:12.021Z,26.78
2019-03-25T15:52:40.748Z,27.12
2019-03-25T15:55:10.790Z,27.21
2019-03-25T15:57:41.187Z,27.44
2019-03-25T16:00:13.249Z,27.76
2019-03-25T16:02:43.420Z,27.99
2019-03-25T16:05:12.325Z,28.06
2019-03-25T16:07:40.982Z,28.27
2019-03-25T16:10:10.442Z,28.39
2019-03-25T16:12:39.134Z,28.52
2019-03-25T16:15:08.279Z,28.60
2019-03-25T16:17:36.968Z,28.74
2019-03-25T16:20:09.997Z,28.87
2019-03-25T16:22:38.670Z,29.10
2019-03-25T16:25:10.467Z,29.25
2019-03-25T16:27:39.185Z,29.41
2019-03-25T16:30:09.027Z,29.65
2019-03-25T16:32:37.742Z,29.79
2019-03-25T16:35:07.030Z,30.06
2019-03-25T16:37:35.709Z,30.16
2019-03-25T16:40:06.733Z,30.30
2019-03-25T16:42:35.449Z,30.41
2019-03-25T16:45:05.129Z,30.59
2019-03-25T16:47:33.731Z,30.75
2019-03-25T16:50:02.726Z,30.88
2019-03-25T16:52:31.404Z,30.99
2019-03-25T16:55:00.299Z,31.22
2019-03-25T16:57:31.827Z,31.43
2019-03-25T17:00:01.791Z,31.59
2019-03-25T17:02:31.905Z,31.75
2019-03-25T17:05:01.006Z,31.91
2019-03-25T17:07:29.583Z,32.00
2019-03-25T17:09:58.265Z,32.13
2019-03-25T17:12:26.898Z,32.33
2019-03-25T17:14:55.615Z,32.51
2019-03-25T17:17:24.353Z,32.72
2019-03-25T17:19:53.585Z,32.90
2019-03-25T17:22:22.239Z,32.90
2019-03-25T17:24:50.893Z,33.11
2019-03-25T17:27:19.790Z,33.57
2019-03-25T17:29:48.437Z,33.16
2019-03-25T17:32:17.166Z,33.53
2019-03-25T17:34:45.878Z,33.53
2019-03-25T17:37:14.638Z,33.52
2019-03-25T17:39:43.369Z,33.53
2019-03-25T17:42:12.061Z,33.75
2019-03-25T17:44:40.768Z,33.75
2019-03-25T17:47:09.484Z,33.80
2019-03-25T17:49:39.486Z,33.95
2019-03-25T17:52:08.143Z,34.51
2019-03-25T17:54:37.741Z,34.80
2019-03-25T17:57:06.414Z,35.34
2019-03-25T17:59:35.349Z,35.44
2019-03-25T18:02:04.126Z,35.45
2019-03-25T18:04:33.056Z,35.46
2019-03-25T18:07:02.917Z,36.13
2019-03-25T18:09:31.527Z,36.17
2019-03-25T18:12:02.425Z,35.79
2019-03-25T18:14:31.149Z,36.52
2019-03-25T18:17:01.064Z,37.31
2019-03-25T18:19:29.729Z,37.37
2019-03-25T18:21:58.464Z,37.64
2019-03-25T18:24:28.792Z,36.61
2019-03-25T18:26:57.520Z,36.49
2019-03-25T18:29:26.202Z,36.97
2019-03-25T18:31:55.204Z,37.82
2019-03-25T18:34:23.801Z,36.95
2019-03-25T18:36:52.478Z,37.54
2019-03-25T18:39:21.514Z,37.26
2019-03-25T18:41:50.450Z,36.13
2019-03-25T18:44:19.103Z,36.29
2019-03-25T18:46:47.785Z,36.38
2019-03-25T18:49:16.508Z,36.65
2019-03-25T18:51:45.182Z,36.36
2019-03-25T18:54:13.839Z,36.23
2019-03-25T18:56:49.910Z,37.05
2019-03-25T18:59:18.640Z,36.03
2019-03-25T19:01:54.532Z,36.05
2019-03-25T19:04:19.011Z,36.32
2019-03-25T19:06:49.066Z,37.14
2019-03-25T19:09:17.807Z,36.57
2019-03-25T19:11:46.470Z,36.96
2019-03-25T19:14:15.287Z,36.72
2019-03-25T19:16:45.482Z,37.37
2019-03-25T19:19:14.067Z,37.77
2019-03-25T19:21:42.643Z,38.31
2019-03-25T19:24:11.417Z,38.16
2019-03-25T19:26:40.009Z,38.33
2019-03-25T19:29:10.294Z,38.70
2019-03-25T19:31:38.955Z,39.19
2019-03-25T19:34:07.586Z,39.69
2019-03-25T19:36:36.285Z,39.68
2019-03-25T19:39:06.848Z,39.32
2019-03-25T19:41:35.496Z,39.57
2019-03-25T19:44:07.205Z,39.31
2019-03-25T19:46:35.978Z,39.29
2019-03-25T19:49:04.629Z,39.38
2019-03-25T19:51:33.322Z,39.24
2019-03-25T19:54:02.095Z,39.09
2019-03-25T19:56:30.841Z,38.94
2019-03-25T19:58:59.543Z,38.69
2019-03-25T20:01:29.491Z,39.30
2019-03-25T20:03:58.222Z,39.30
2019-03-25T20:06:27.034Z,39.34
2019-03-25T20:08:55.771Z,39.54
2019-03-25T20:11:24.434Z,40.05
2019-03-25T20:13:55.230Z,40.34
2019-03-25T20:16:23.995Z,40.68
2019-03-25T20:18:52.881Z,40.73
2019-03-25T20:21:21.509Z,40.49
2019-03-25T20:23:51.814Z,40.75
2019-03-25T20:26:20.603Z,41.03
2019-03-25T20:28:49.195Z,40.74
2019-03-25T20:31:17.981Z,40.55
2019-03-25T20:33:46.787Z,40.25
2019-03-25T20:36:18.331Z,40.57
2019-03-25T20:38:49.309Z,40.70
2019-03-25T20:41:19.784Z,40.99
2019-03-25T20:43:51.475Z,41.01
2019-03-25T20:46:20.262Z,40.55
2019-03-25T20:48:49.018Z,40.96
2019-03-25T20:51:17.851Z,40.88
2019-03-25T20:53:46.596Z,40.96
2019-03-25T20:56:16.884Z,40.71
2019-03-25T20:58:45.819Z,40.85
2019-03-25T21:01:14.497Z,40.59
2019-03-25T21:03:43.401Z,40.21
2019-03-25T21:06:12.121Z,40.20
2019-03-25T21:08:40.763Z,40.79
2019-03-25T21:11:09.483Z,40.24
2019-03-25T21:13:38.116Z,39.49
2019-03-25T21:16:06.880Z,40.17
2019-03-25T21:18:35.579Z,40.07
2019-03-25T21:21:04.726Z,39.96
2019-03-25T21:23:33.337Z,40.29
2019-03-25T21:26:02.016Z,40.28
2019-03-25T21:28:30.758Z,40.29
2019-03-25T21:30:59.458Z,41.26
2019-03-25T21:33:28.114Z,40.69
2019-03-25T21:35:58.306Z,40.67
2019-03-25T21:38:26.989Z,40.63
2019-03-25T21:40:55.678Z,41.00
2019-03-25T21:43:24.364Z,42.71
2019-03-25T21:45:53.107Z,42.26
2019-03-25T21:48:21.835Z,41.90
2019-03-25T21:50:50.550Z,41.47
2019-03-25T21:53:19.127Z,41.69
2019-03-25T21:55:48.062Z,40.65
2019-03-25T21:58:18.221Z,40.77
2019-03-25T22:00:47.108Z,40.84
2019-03-25T22:03:15.667Z,41.31
2019-03-25T22:05:44.377Z,41.44
2019-03-25T22:08:13.096Z,41.65
2019-03-25T22:10:43.111Z,41.54
2019-03-25T22:13:12.092Z,42.62
2019-03-25T22:15:40.739Z,42.59
2019-03-25T22:18:09.393Z,43.39
2019-03-25T22:20:39.121Z,43.65
2019-03-25T22:23:07.694Z,43.31
2019-03-25T22:25:36.339Z,43.07
2019-03-25T22:28:05.026Z,43.24
2019-03-25T22:30:34.526Z,43.37
2019-03-25T22:33:02.992Z,43.47
2019-03-25T22:35:31.812Z,43.08
2019-03-25T22:38:00.327Z,43.08
2019-03-25T22:40:28.981Z,43.18
2019-03-25T22:42:58.515Z,43.21
2019-03-25T22:45:30.651Z,43.38
2019-03-25T22:48:00.714Z,43.09
2019-03-25T22:50:31.160Z,43.15
2019-03-25T22:52:59.924Z,43.18
2019-03-25T22:55:28.558Z,43.46
2019-03-25T22:57:57.217Z,43.85
2019-03-25T23:00:29.005Z,43.53
2019-03-25T23:02:58.587Z,43.22
2019-03-25T23:05:27.397Z,42.90
2019-03-25T23:07:56.988Z,42.80
2019-03-25T23:10:25.629Z,42.85
2019-03-25T23:12:54.211Z,42.95
2019-03-25T23:15:23.048Z,42.98
2019-03-25T23:17:51.695Z,43.23
2019-03-25T23:20:20.099Z,43.77
2019-03-25T23:22:49.357Z,43.79
2019-03-25T23:25:18.193Z,43.72
2019-03-25T23:27:46.842Z,43.52
2019-03-25T23:30:16.898Z,43.44
2019-03-25T23:32:45.489Z,43.53
2019-03-25T23:35:14.213Z,43.58
2019-03-25T23:37:42.863Z,43.93
2019-03-25T23:40:11.549Z,43.79
2019-03-25T23:42:42.236Z,44.09
2019-03-25T23:45:11.171Z,44.08
2019-03-25T23:47:40.123Z,44.03
2019-03-25T23:50:08.848Z,44.22
2019-03-25T23:52:37.561Z,44.17
2019-03-25T23:55:07.463Z,43.93
2019-03-25T23:57:36.109Z,43.78
